Cononcito, New Mexico
Current Conditions -  °F | °C
As of 11:55 AM on Friday 24 Oct 2014 (Local Time) from KE80 Reporting Station
Clear Clear  
Wind Chill: 69°   Ceiling: Unl
Heat Index: 69°   Visibility: 10mi
Dew Point: 35°   Wind: 0mph
Humidity: 29%   Direction: NA
Pressure: 30.33"   Gusts: NA
Location:  34.9068°N, 107.279°W
Report Text: KE80 241755Z AUTO 00000KT 10SM CLR 20/02 A3033 RMK AO2 6//// T02030015
Loading
Personal Weather Stations






























Interactive Weather Map
Tropical Storm Tracking
New forecast layout! Learn more

10-Day Weather Forecast

Advertisements
Track Severe Weather on mobile